Time;durP1;ratioP1;P1;durP2;ratioP2;P2;SDS_P1;SDS_P2;PMS_P1;PMS_P2;Temp;Humidity;BMP_temperature;BMP_pressure;BME280_temperature;BME280_humidity;BME280_pressure;Samples;Min_cycle;Max_cycle;Signal;HPM_P1;HPM_P2
2021/12/08 00:01:22;;;;;;;;;;;;;;;4.00;100.00;99237.47;5094262;28;19919;-36
2021/12/08 00:03:48;;;;;;;;;;;;;;;3.99;100.00;99235.84;5093750;28;19911;-35
2021/12/08 00:06:13;;;;;;;;;;;;;;;4.00;100.00;99238.31;5093364;28;20367;-36
2021/12/08 00:08:45;;;;;;;;;;;;;;;4.02;100.00;99219.34;5093485;28;19953;-35
2021/12/08 00:13:55;;;;;;;;;;;;;;;4.08;100.00;99223.78;5093320;28;19919;-36
2021/12/08 00:16:20;;;;;;;;;;;;;;;4.10;100.00;99216.34;5093451;28;19919;-36
2021/12/08 00:18:48;;;;;;;;;;;;;;;4.12;100.00;99206.22;5093861;28;20014;-36
2021/12/08 00:21:13;;;;;;;;;;;;;;;4.16;100.00;99204.72;5093679;28;19955;-35
2021/12/08 00:23:39;;;;;;;;;;;;;;;4.19;100.00;99206.13;5093331;28;19916;-36
2021/12/08 00:26:04;;;;;;;;;;;;;;;4.21;100.00;99209.41;5092611;28;19957;-36
2021/12/08 00:28:30;;;;;;;;;;;;;;;4.23;100.00;99220.66;5093835;28;19912;-36
2021/12/08 00:30:57;;;;;;;;;;;;;;;4.25;100.00;99223.94;5093460;28;19918;-35
2021/12/08 00:33:22;;;;;;;;;;;;;;;4.28;100.00;99215.44;5092956;28;19912;-36
2021/12/08 00:35:49;;;;;;;;;;;;;;;4.30;100.00;99229.44;5092825;28;19919;-36
2021/12/08 00:38:17;;;;;;;;;;;;;;;4.34;100.00;99231.41;5093923;28;19912;-36
2021/12/08 00:40:43;;;;;;;;;;;;;;;4.38;100.00;99229.06;5093135;28;19945;-35
2021/12/08 00:43:08;;;;;;;;;;;;;;;4.39;100.00;99228.88;5092952;28;20296;-35
2021/12/08 00:45:33;;;;;;;;;;;;;;;4.42;100.00;99216.06;5093667;28;20268;-35
2021/12/08 00:48:00;;;;;;;;;;;;;;;4.45;100.00;99197.69;5093606;28;20020;-35
2021/12/08 00:50:27;;;;;;;;;;;;;;;4.48;100.00;99207.91;5093092;28;20303;-35
2021/12/08 00:52:52;;;;;;;;;;;;;;;4.53;100.00;99220.59;5093896;28;20003;-35
2021/12/08 00:55:19;;;;;;;;;;;;;;;4.58;100.00;99218.06;5092789;28;20392;-36
2021/12/08 00:57:44;;;;;;;;;;;;;;;4.61;100.00;99218.41;5093290;28;20034;-35
2021/12/08 01:00:18;;;;;;;;;;;;;;;4.69;100.00;99224.47;5093065;28;19943;-36
2021/12/08 01:02:43;;;;;;;;;;;;;;;4.72;100.00;99235.53;5092699;28;19916;-35
2021/12/08 01:05:10;;;;;;;;;;;;;;;4.76;100.00;99244.72;5093237;28;19977;-35
2021/12/08 01:07:35;;;;;;;;;;;;;;;4.80;100.00;99243.22;5092919;28;19912;-35
2021/12/08 01:10:00;;;;;;;;;;;;;;;4.83;100.00;99229.38;5092836;28;19919;-35
2021/12/08 01:12:26;;;;;;;;;;;;;;;4.86;100.00;99254.88;5092939;28;20282;-35
2021/12/08 01:14:51;;;;;;;;;;;;;;;4.89;100.00;99251.75;5093451;28;19919;-36
2021/12/08 01:17:16;;;;;;;;;;;;;;;4.93;100.00;99242.19;5092485;28;19918;-36
2021/12/08 01:19:41;;;;;;;;;;;;;;;4.96;100.00;99249.75;5092662;28;20371;-36
2021/12/08 01:22:07;;;;;;;;;;;;;;;4.99;100.00;99251.16;5092998;28;19912;-36
2021/12/08 01:24:32;;;;;;;;;;;;;;;5.00;100.00;99253.59;5092714;28;19919;-36
2021/12/08 01:26:58;;;;;;;;;;;;;;;5.02;100.00;99248.00;5093203;28;20367;-36
2021/12/08 01:29:23;;;;;;;;;;;;;;;5.04;100.00;99249.41;5093263;28;19912;-36
2021/12/08 01:31:49;;;;;;;;;;;;;;;5.05;100.00;99258.25;5092826;28;19915;-36
2021/12/08 01:34:14;;;;;;;;;;;;;;;5.07;100.00;99261.50;5092842;28;20364;-36
2021/12/08 01:36:39;;;;;;;;;;;;;;;5.09;100.00;99254.88;5092950;28;19912;-36
2021/12/08 01:39:06;;;;;;;;;;;;;;;5.10;100.00;99253.00;5096764;28;19951;-36
2021/12/08 01:41:31;;;;;;;;;;;;;;;5.13;100.00;99260.59;5096310;28;20010;-36
2021/12/08 01:46:41;;;;;;;;;;;;;;;5.18;100.00;99263.38;5096891;28;19962;-36
2021/12/08 01:49:06;;;;;;;;;;;;;;;5.20;100.00;99266.63;5096556;28;19919;-36
2021/12/08 01:51:32;;;;;;;;;;;;;;;5.23;100.00;99268.84;5096404;28;19978;-35
2021/12/08 01:54:01;;;;;;;;;;;;;;;5.23;100.00;99274.22;5096118;28;20318;-36
2021/12/08 01:56:26;;;;;;;;;;;;;;;5.25;100.00;99273.97;5096234;28;19935;-36
2021/12/08 01:58:52;;;;;;;;;;;;;;;5.25;100.00;99272.09;5096796;28;19916;-36
2021/12/08 02:01:19;;;;;;;;;;;;;;;5.27;100.00;99279.91;5096499;28;19941;-36
2021/12/08 02:03:45;;;;;;;;;;;;;;;5.28;100.00;99276.19;5096382;28;20351;-36
2021/12/08 02:06:11;;;;;;;;;;;;;;;5.29;100.00;99286.66;5096305;28;19912;-36
2021/12/08 02:08:37;;;;;;;;;;;;;;;5.30;100.00;99292.84;5096658;28;19920;-36
2021/12/08 02:11:03;;;;;;;;;;;;;;;5.31;100.00;99286.44;5096307;28;20272;-36
2021/12/08 02:13:31;;;;;;;;;;;;;;;5.32;100.00;99285.38;5096312;28;19951;-36
2021/12/08 02:15:59;;;;;;;;;;;;;;;5.31;100.00;99289.91;5095273;28;19912;-36
2021/12/08 02:18:24;;;;;;;;;;;;;;;5.32;100.00;99298.78;5095753;28;20360;-35
2021/12/08 02:20:50;;;;;;;;;;;;;;;5.32;100.00;99302.28;5095449;28;19922;-36
2021/12/08 02:23:16;;;;;;;;;;;;;;;5.33;100.00;99306.59;5096103;28;19912;-36
2021/12/08 02:25:41;;;;;;;;;;;;;;;5.34;100.00;99313.59;5095515;28;20036;-36
2021/12/08 02:28:07;;;;;;;;;;;;;;;5.33;100.00;99314.63;5095743;28;19947;-36
2021/12/08 02:30:43;;;;;;;;;;;;;;;5.31;100.00;99316.72;5095493;28;20002;-36
2021/12/08 02:47:06;;;;;;;;;;;;;;;5.31;100.00;99319.41;5095099;28;19942;-36
2021/12/08 02:49:32;;;;;;;;;;;;;;;5.33;100.00;99335.28;5094190;28;20020;-36
2021/12/08 02:51:57;;;;;;;;;;;;;;;5.33;100.00;99336.09;5095542;28;20290;-36
2021/12/08 02:54:23;;;;;;;;;;;;;;;5.35;100.00;99341.19;5094726;28;20403;-36
2021/12/08 02:56:48;;;;;;;;;;;;;;;5.35;100.00;99342.00;5094842;28;19957;-36
2021/12/08 02:59:14;;;;;;;;;;;;;;;5.36;100.00;99343.63;5095252;28;19998;-36
2021/12/08 03:01:39;;;;;;;;;;;;;;;5.36;100.00;99340.16;5095413;28;19965;-36
2021/12/08 03:04:05;;;;;;;;;;;;;;;5.36;100.00;99327.56;5095376;28;19916;-36
2021/12/08 03:06:31;;;;;;;;;;;;;;;5.37;100.00;99329.22;5094729;28;19974;-36
2021/12/08 03:08:56;;;;;;;;;;;;;;;5.38;100.00;99328.16;5094848;28;20381;-36
2021/12/08 03:11:21;;;;;;;;;;;;;;;5.39;100.00;99327.09;5094900;28;19912;-36
2021/12/08 03:14:10;;;;;;;;;;;;;;;5.41;100.00;99324.19;5094917;28;19912;-36
2021/12/08 03:16:36;;;;;;;;;;;;;;;5.42;100.00;99323.16;5012470;28;19960;-36
2021/12/08 03:19:02;;;;;;;;;;;;;;;5.43;100.00;99332.81;5012507;28;19963;-36
2021/12/08 03:21:31;;;;;;;;;;;;;;;5.41;100.00;99338.38;5012386;28;19917;-36
2021/12/08 03:26:33;;;;;;;;;;;;;;;5.42;100.00;99348.09;5012464;28;19913;-36
2021/12/08 03:29:04;;;;;;;;;;;;;;;5.42;100.00;99361.50;5012294;28;19917;-36
2021/12/08 03:31:35;;;;;;;;;;;;;;;5.43;100.00;99359.63;5012084;28;19913;-36
2021/12/08 03:34:00;;;;;;;;;;;;;;;5.40;100.00;99360.88;5012266;28;19944;-36
2021/12/08 03:36:25;;;;;;;;;;;;;;;5.43;100.00;99363.13;5011957;28;20317;-36
2021/12/08 03:38:51;;;;;;;;;;;;;;;5.41;100.00;99361.72;5012287;28;20012;-36
2021/12/08 03:41:16;;;;;;;;;;;;;;;5.40;100.00;99354.72;5012049;28;20281;-36
2021/12/08 03:43:41;;;;;;;;;;;;;;;5.39;100.00;99355.78;5012531;28;19913;-36
2021/12/08 03:46:11;;;;;;;;;;;;;;;5.36;100.00;99349.00;5011818;28;20371;-36
2021/12/08 03:48:45;;;;;;;;;;;;;;;5.35;100.00;99346.56;5012563;28;19921;-36
2021/12/08 03:51:10;;;;;;;;;;;;;;;5.37;100.00;99360.56;5011815;28;19917;-36
2021/12/08 03:53:35;;;;;;;;;;;;;;;5.36;100.00;99358.91;5054355;28;19939;-36
2021/12/08 03:56:00;;;;;;;;;;;;;;;5.36;100.00;99367.75;5093968;28;19912;-36
2021/12/08 03:58:26;;;;;;;;;;;;;;;5.35;100.00;99360.78;5094108;28;20267;-36
2021/12/08 04:00:52;;;;;;;;;;;;;;;5.31;99.91;99369.50;5093277;28;20006;-36
2021/12/08 04:03:18;;;;;;;;;;;;;;;5.27;99.85;99360.31;5094544;28;19912;-36
2021/12/08 04:05:51;;;;;;;;;;;;;;;5.21;99.70;99374.63;5094191;28;19912;-36
2021/12/08 04:08:20;;;;;;;;;;;;;;;5.16;98.21;99368.09;5093474;28;19977;-36
2021/12/08 04:10:48;;;;;;;;;;;;;;;5.14;99.03;99372.88;5093910;28;20264;-36
2021/12/08 04:13:14;;;;;;;;;;;;;;;5.14;98.49;99374.75;5093687;28;19916;-36
2021/12/08 04:15:39;;;;;;;;;;;;;;;5.12;97.24;99374.16;5094327;28;19915;-36
2021/12/08 04:18:04;;;;;;;;;;;;;;;5.12;97.38;99380.34;5093815;28;19947;-36
2021/12/08 04:20:36;;;;;;;;;;;;;;;5.10;98.41;99376.25;5093646;28;20372;-36
2021/12/08 04:23:01;;;;;;;;;;;;;;;5.08;98.17;99383.72;5093534;28;19936;-36
2021/12/08 04:25:29;;;;;;;;;;;;;;;5.03;97.45;99386.28;5093395;28;19951;-36
2021/12/08 04:27:57;;;;;;;;;;;;;;;4.96;97.60;99381.00;5093756;28;19919;-36
2021/12/08 04:30:25;;;;;;;;;;;;;;;4.93;98.07;99386.00;5093854;28;19970;-36
2021/12/08 04:32:50;;;;;;;;;;;;;;;4.87;97.38;99382.38;5093380;28;19995;-36
2021/12/08 04:35:18;;;;;;;;;;;;;;;4.85;98.41;99392.53;5093513;28;20316;-36
2021/12/08 04:37:47;;;;;;;;;;;;;;;4.79;98.24;99396.94;5093247;28;19920;-36
2021/12/08 04:40:31;;;;;;;;;;;;;;;4.76;97.82;99397.38;5093295;28;19912;-36
2021/12/08 04:46:01;;;;;;;;;;;;;;;4.72;98.11;99395.38;5093488;28;19969;-36
2021/12/08 05:04:51;;;;;;;;;;;;;;;4.65;96.23;99416.91;5011131;28;19918;-36
2021/12/08 05:07:46;;;;;;;;;;;;;;;4.68;96.66;99410.25;5011046;28;19925;-36
2021/12/08 05:10:16;;;;;;;;;;;;;;;4.67;96.39;99414.81;5011025;28;19913;-36
2021/12/08 05:12:42;;;;;;;;;;;;;;;4.65;95.94;99424.94;5012660;28;20294;-36
2021/12/08 05:15:15;;;;;;;;;;;;;;;4.65;96.78;99427.63;5014874;28;19920;-36
2021/12/08 05:17:48;;;;;;;;;;;;;;;4.65;95.86;99427.63;5015376;28;20377;-36
2021/12/08 05:20:13;;;;;;;;;;;;;;;4.64;96.37;99431.34;5015311;28;20249;-35
2021/12/08 05:22:41;;;;;;;;;;;;;;;4.61;95.87;99427.25;5014583;28;19914;-36
2021/12/08 05:25:09;;;;;;;;;;;;;;;4.59;96.12;99415.97;5014567;28;19917;-36
2021/12/08 05:27:39;;;;;;;;;;;;;;;4.58;95.34;99421.53;5014462;28;20009;-36
2021/12/08 05:30:05;;;;;;;;;;;;;;;4.57;95.03;99423.38;5015066;28;19913;-35
2021/12/08 05:32:30;;;;;;;;;;;;;;;4.57;95.42;99418.03;5014574;28;20000;-36
2021/12/08 05:34:55;;;;;;;;;;;;;;;4.58;95.62;99426.88;5014660;28;19960;-36
2021/12/08 05:37:22;;;;;;;;;;;;;;;4.55;94.95;99428.16;5014209;28;19914;-36
2021/12/08 05:39:48;;;;;;;;;;;;;;;4.57;95.28;99417.22;5014223;28;19920;-36
2021/12/08 05:42:16;;;;;;;;;;;;;;;4.55;95.45;99427.34;5078420;28;19912;-36
2021/12/08 05:44:42;;;;;;;;;;;;;;;4.50;95.17;99430.69;5097113;28;20309;-36
2021/12/08 05:47:11;;;;;;;;;;;;;;;4.50;95.64;99435.25;5096599;28;19912;-36
2021/12/08 05:49:36;;;;;;;;;;;;;;;4.49;95.95;99442.44;5096404;28;19912;-36
2021/12/08 05:52:02;;;;;;;;;;;;;;;4.43;95.00;99442.53;5096392;28;19927;-36
2021/12/08 05:54:30;;;;;;;;;;;;;;;4.39;95.29;99442.13;5096895;28;19969;-36
2021/12/08 05:56:56;;;;;;;;;;;;;;;4.39;95.69;99444.81;5095998;28;20280;-36
2021/12/08 05:59:22;;;;;;;;;;;;;;;4.37;95.68;99444.25;5096248;28;19912;-36
2021/12/08 06:01:51;;;;;;;;;;;;;;;4.36;95.28;99440.75;5096256;28;19919;-36
2021/12/08 06:04:17;;;;;;;;;;;;;;;4.33;95.53;99446.53;5095898;28;20338;-36
2021/12/08 06:06:43;;;;;;;;;;;;;;;4.34;95.79;99453.56;5096011;28;19912;-36
2021/12/08 06:09:09;;;;;;;;;;;;;;;4.35;95.99;99454.38;5095775;28;20404;-36
2021/12/08 06:11:35;;;;;;;;;;;;;;;4.34;95.95;99464.25;5095824;28;19939;-36
2021/12/08 06:14:01;;;;;;;;;;;;;;;4.29;95.85;99469.44;5077875;28;19919;-36
2021/12/08 06:16:28;;;;;;;;;;;;;;;4.31;95.78;99463.88;5095467;28;20020;-36
2021/12/08 06:18:53;;;;;;;;;;;;;;;4.30;96.00;99463.06;5095893;28;19991;-36
2021/12/08 06:21:20;;;;;;;;;;;;;;;4.30;95.47;99470.28;5095718;28;19958;-36
2021/12/08 06:23:46;;;;;;;;;;;;;;;4.33;96.26;99480.50;5095199;28;19912;-36
2021/12/08 06:26:12;;;;;;;;;;;;;;;4.29;95.73;99482.81;5095692;28;19991;-36
2021/12/08 06:28:38;;;;;;;;;;;;;;;4.29;95.45;99484.66;5095979;28;20368;-36
2021/12/08 06:31:04;;;;;;;;;;;;;;;4.28;95.06;99494.56;5095616;28;19934;-36
2021/12/08 06:33:31;;;;;;;;;;;;;;;4.28;95.47;99489.22;5095417;28;19915;-36
2021/12/08 06:35:58;;;;;;;;;;;;;;;4.28;94.89;99497.25;5095085;28;19923;-36
2021/12/08 06:38:24;;;;;;;;;;;;;;;4.28;95.84;99509.81;5096430;28;19912;-35
2021/12/08 06:40:56;;;;;;;;;;;;;;;4.29;95.47;99508.75;5095894;28;19912;-36
2021/12/08 06:43:24;;;;;;;;;;;;;;;4.29;94.78;99500.72;5096146;28;19912;-35
2021/12/08 06:45:52;;;;;;;;;;;;;;;4.30;94.85;99505.88;5095798;28;19912;-36
2021/12/08 06:48:22;;;;;;;;;;;;;;;4.27;95.18;99500.97;5095208;28;19912;-36
2021/12/08 06:50:50;;;;;;;;;;;;;;;4.24;94.67;99501.41;5095328;28;19912;-36
2021/12/08 06:53:16;;;;;;;;;;;;;;;4.23;94.19;99499.75;5095443;28;20007;-36
2021/12/08 06:55:46;;;;;;;;;;;;;;;4.21;93.95;99507.22;5095199;28;20022;-36
2021/12/08 06:58:17;;;;;;;;;;;;;;;4.21;94.88;99507.22;5095606;28;19912;-36
2021/12/08 07:01:08;;;;;;;;;;;;;;;4.17;94.38;99503.34;5095477;28;19912;-36
2021/12/08 07:04:10;;;;;;;;;;;;;;;4.14;94.17;99506.44;5095678;28;19953;-35
2021/12/08 07:06:45;;;;;;;;;;;;;;;4.11;94.40;99502.38;5095355;28;19964;-36
2021/12/08 07:09:12;;;;;;;;;;;;;;;4.08;94.31;99504.66;5095497;28;19919;-36
2021/12/08 07:11:38;;;;;;;;;;;;;;;4.05;94.27;99519.31;5094759;28;19912;-36
2021/12/08 07:14:04;;;;;;;;;;;;;;;4.05;93.55;99521.16;5095300;28;19918;-36
2021/12/08 07:16:32;;;;;;;;;;;;;;;4.03;94.04;99521.38;5094746;28;20006;-36
2021/12/08 07:19:10;;;;;;;;;;;;;;;3.99;93.90;99528.19;5095378;28;19957;-35
2021/12/08 07:21:38;;;;;;;;;;;;;;;4.00;94.09;99539.72;5094256;28;19919;-36
2021/12/08 07:24:09;;;;;;;;;;;;;;;3.98;93.74;99539.13;5094528;28;20367;-36
2021/12/08 07:26:38;;;;;;;;;;;;;;;3.96;93.81;99542.03;5094385;28;19912;-36
2021/12/08 07:29:03;;;;;;;;;;;;;;;3.96;94.07;99543.88;5094953;28;19912;-36
2021/12/08 07:31:35;;;;;;;;;;;;;;;3.94;94.73;99562.81;5094268;28;19974;-36
2021/12/08 07:34:05;;;;;;;;;;;;;;;3.90;94.42;99558.13;5095226;28;19965;-35
2021/12/08 07:36:31;;;;;;;;;;;;;;;3.90;94.17;99560.78;5094153;28;20366;-36
2021/12/08 07:38:59;;;;;;;;;;;;;;;3.88;94.58;99577.88;5094249;28;19912;-36
2021/12/08 07:41:29;;;;;;;;;;;;;;;3.83;94.32;99585.75;5094127;28;19912;-35
2021/12/08 07:43:57;;;;;;;;;;;;;;;3.80;94.74;99586.16;5094632;28;20260;-35
2021/12/08 07:46:25;;;;;;;;;;;;;;;3.81;94.99;99589.69;5094054;28;19912;-35
2021/12/08 07:48:52;;;;;;;;;;;;;;;3.81;95.20;99581.66;5094511;28;19912;-35
2021/12/08 07:51:17;;;;;;;;;;;;;;;3.80;94.46;99583.50;5094226;28;19966;-35
2021/12/08 07:53:43;;;;;;;;;;;;;;;3.78;94.87;99593.59;5094497;28;19912;-35
2021/12/08 07:56:09;;;;;;;;;;;;;;;3.77;94.33;99586.63;5093871;28;19935;-35
2021/12/08 07:58:35;;;;;;;;;;;;;;;3.80;95.03;99583.50;5093835;28;19916;-35
2021/12/08 08:01:03;;;;;;;;;;;;;;;3.81;94.64;99587.00;5093790;28;19912;-35
2021/12/08 08:03:31;;;;;;;;;;;;;;;3.82;94.34;99568.06;5093916;28;20360;-35
2021/12/08 08:05:58;;;;;;;;;;;;;;;3.86;94.02;99565.78;5093428;28;19912;-35
2021/12/08 08:08:25;;;;;;;;;;;;;;;3.89;93.78;99578.69;5094119;28;19916;-35
2021/12/08 08:11:10;;;;;;;;;;;;;;;3.94;94.39;99575.38;5094271;28;19912;-35
2021/12/08 08:13:36;;;;;;;;;;;;;;;3.98;93.71;99585.41;5093676;28;19911;-35
2021/12/08 08:16:12;;;;;;;;;;;;;;;4.02;93.29;99583.13;5094009;28;19912;-35
2021/12/08 08:18:40;;;;;;;;;;;;;;;4.04;94.00;99587.19;5093387;28;19920;-35
2021/12/08 08:21:08;;;;;;;;;;;;;;;4.07;93.52;99588.63;5094100;28;19912;-35
2021/12/08 08:23:33;;;;;;;;;;;;;;;4.10;93.28;99594.38;5093880;28;19916;-35
2021/12/08 08:26:00;;;;;;;;;;;;;;;4.12;94.01;99586.94;5093474;28;20350;-35
2021/12/08 08:28:25;;;;;;;;;;;;;;;4.14;93.80;99589.38;5093905;28;20442;-35
2021/12/08 08:31:11;;;;;;;;;;;;;;;4.14;92.80;99587.53;5094161;28;19912;-35
2021/12/08 08:33:38;;;;;;;;;;;;;;;4.17;92.61;99591.63;5092771;28;19919;-35
2021/12/08 08:36:06;;;;;;;;;;;;;;;4.12;92.04;99594.16;5093701;28;20011;-35
2021/12/08 08:38:33;;;;;;;;;;;;;;;4.11;91.72;99581.81;5093417;28;19912;-35
2021/12/08 08:41:05;;;;;;;;;;;;;;;4.11;92.02;99576.47;5093430;28;19916;-35
2021/12/08 08:43:30;;;;;;;;;;;;;;;4.12;91.31;99575.41;5093575;28;19916;-35
2021/12/08 08:46:01;;;;;;;;;;;;;;;4.10;91.80;99574.84;5094265;28;20352;-35
2021/12/08 08:48:36;;;;;;;;;;;;;;;4.14;91.16;99578.69;5096245;28;19986;-35
2021/12/08 08:51:07;;;;;;;;;;;;;;;4.16;91.36;99562.44;5098001;28;19918;-35
2021/12/08 08:53:34;;;;;;;;;;;;;;;4.22;90.77;99567.72;5097419;28;20003;-35
2021/12/08 08:56:20;;;;;;;;;;;;;;;4.28;90.71;99566.81;5097375;28;19978;-35
2021/12/08 08:58:48;;;;;;;;;;;;;;;4.35;90.21;99572.13;5096535;28;20279;-35
2021/12/08 09:01:20;;;;;;;;;;;;;;;4.36;90.26;99569.22;5097475;28;19912;-35
2021/12/08 09:03:52;;;;;;;;;;;;;;;4.41;90.12;99587.28;5098131;28;20014;-35
2021/12/08 09:06:21;;;;;;;;;;;;;;;4.44;90.04;99592.22;5097248;28;19978;-35
2021/12/08 09:08:46;;;;;;;;;;;;;;;4.47;89.47;99599.78;5097760;28;19912;-35
2021/12/08 09:11:17;;;;;;;;;;;;;;;4.52;90.50;99591.91;5096828;28;19916;-35
2021/12/08 09:13:49;;;;;;;;;;;;;;;4.61;89.62;99600.47;5097411;28;19918;-35
2021/12/08 09:16:22;;;;;;;;;;;;;;;4.68;89.26;99598.53;5096734;28;19912;-35
2021/12/08 09:18:52;;;;;;;;;;;;;;;4.68;88.83;99593.16;5097035;28;19919;-35
2021/12/08 09:21:27;;;;;;;;;;;;;;;4.73;89.35;99596.00;5096954;28;19958;-35
2021/12/08 09:23:56;;;;;;;;;;;;;;;4.78;88.99;99596.19;5097718;28;19912;-35
2021/12/08 09:26:22;;;;;;;;;;;;;;;4.79;88.12;99602.34;5096880;28;20381;-35
2021/12/08 09:28:51;;;;;;;;;;;;;;;4.82;88.62;99610.72;5097382;28;19964;-35
2021/12/08 09:31:22;;;;;;;;;;;;;;;4.83;87.44;99612.41;5096762;28;19911;-36
2021/12/08 09:33:53;;;;;;;;;;;;;;;4.86;88.59;99622.63;5096776;28;19919;-35
2021/12/08 09:36:20;;;;;;;;;;;;;;;4.93;88.42;99622.59;5097143;28;19916;-35
2021/12/08 09:38:47;;;;;;;;;;;;;;;5.02;87.22;99631.13;5096727;28;20037;-35
2021/12/08 09:41:15;;;;;;;;;;;;;;;5.07;88.58;99640.13;5096598;28;20275;-35
2021/12/08 09:43:43;;;;;;;;;;;;;;;5.08;87.73;99627.56;5096356;28;20375;-35
2021/12/08 09:46:14;;;;;;;;;;;;;;;5.09;87.15;99630.00;5096604;28;19923;-35
2021/12/08 09:48:41;;;;;;;;;;;;;;;5.14;87.26;99629.34;5097270;28;19998;-35
2021/12/08 09:51:07;;;;;;;;;;;;;;;5.27;87.49;99617.59;5096196;28;19912;-35
2021/12/08 09:53:34;;;;;;;;;;;;;;;5.39;87.00;99621.19;5096338;28;19934;-35
2021/12/08 09:55:59;;;;;;;;;;;;;;;5.49;88.01;99616.09;5096165;28;20459;-35
2021/12/08 09:58:24;;;;;;;;;;;;;;;5.53;85.94;99603.88;5096798;28;19963;-35
2021/12/08 10:00:53;;;;;;;;;;;;;;;5.56;86.01;99615.97;5096721;28;19912;-35
2021/12/08 10:03:18;;;;;;;;;;;;;;;5.57;84.49;99590.81;5078338;28;20315;-35
2021/12/08 10:05:43;;;;;;;;;;;;;;;5.59;85.25;99591.41;5096933;28;19935;-35
2021/12/08 10:08:09;;;;;;;;;;;;;;;5.62;84.65;99589.09;5096040;28;20010;-35
2021/12/08 10:10:35;;;;;;;;;;;;;;;5.62;84.51;99582.91;5096165;28;19921;-35
2021/12/08 10:13:01;;;;;;;;;;;;;;;5.61;84.33;99592.81;5096066;28;19912;-35
2021/12/08 10:15:26;;;;;;;;;;;;;;;5.66;84.72;99592.94;5096182;28;20267;-35
2021/12/08 10:17:52;;;;;;;;;;;;;;;5.73;85.18;99589.34;5096185;28;20253;-35
2021/12/08 10:20:22;;;;;;;;;;;;;;;5.74;84.76;99580.25;5095759;28;19919;-35
2021/12/08 10:23:07;;;;;;;;;;;;;;;5.75;83.46;99581.88;5095586;28;20010;-35
2021/12/08 10:25:35;;;;;;;;;;;;;;;5.78;83.53;99590.28;5096581;28;20308;-35
2021/12/08 10:28:14;;;;;;;;;;;;;;;5.76;83.89;99584.34;5096022;28;19982;-35
2021/12/08 10:30:54;;;;;;;;;;;;;;;5.78;83.17;99586.78;5095921;28;19926;-35
2021/12/08 10:33:48;;;;;;;;;;;;;;;5.78;83.40;99582.25;5095857;28;20279;-35
2021/12/08 10:36:36;;;;;;;;;;;;;;;5.80;83.54;99572.09;5095760;28;19912;-36
2021/12/08 10:39:06;;;;;;;;;;;;;;;5.80;83.09;99569.41;5094916;28;19916;-35
2021/12/08 10:41:50;;;;;;;;;;;;;;;5.83;83.09;99562.78;5095232;28;20400;-35
2021/12/08 10:44:19;;;;;;;;;;;;;;;5.85;83.20;99561.47;5095219;28;20356;-35
2021/12/08 10:46:44;;;;;;;;;;;;;;;5.86;82.95;99554.28;5095115;28;20477;-36
2021/12/08 10:49:27;;;;;;;;;;;;;;;5.87;82.34;99553.22;5095527;28;19916;-35
2021/12/08 10:54:36;;;;;;;;;;;;;;;5.97;84.43;99558.84;5095318;28;19989;-36
2021/12/08 10:57:17;;;;;;;;;;;;;;;5.95;83.23;99568.97;5095361;28;19966;-35
2021/12/08 11:00:04;;;;;;;;;;;;;;;5.83;83.35;99574.31;5076741;28;19919;-35
2021/12/08 11:02:36;;;;;;;;;;;;;;;5.81;83.39;99571.06;5012964;28;19924;-35
2021/12/08 11:05:01;;;;;;;;;;;;;;;5.81;82.83;99589.03;5013455;28;19917;-35
2021/12/08 11:07:26;;;;;;;;;;;;;;;5.86;83.79;99589.97;5012552;28;19947;-35
2021/12/08 11:09:52;;;;;;;;;;;;;;;5.96;84.17;99604.72;5012098;28;19914;-35
2021/12/08 11:12:17;;;;;;;;;;;;;;;6.02;84.24;99601.09;5012547;28;19921;-35
2021/12/08 11:14:44;;;;;;;;;;;;;;;6.05;83.10;99600.63;5013161;28;19913;-35
2021/12/08 11:17:29;;;;;;;;;;;;;;;6.05;82.91;99614.88;5012643;28;19979;-36
2021/12/08 11:20:14;;;;;;;;;;;;;;;6.02;82.90;99612.66;5013183;28;19921;-35
2021/12/08 11:22:39;;;;;;;;;;;;;;;5.94;83.07;99626.38;5012334;28;19996;-35
2021/12/08 11:25:06;;;;;;;;;;;;;;;5.88;82.90;99625.41;5012666;28;19917;-35
2021/12/08 11:27:34;;;;;;;;;;;;;;;5.91;84.09;99630.38;5012369;28;19921;-35
2021/12/08 11:30:10;;;;;;;;;;;;;;;5.97;84.33;99638.53;5013050;28;20246;-36
2021/12/08 11:32:35;;;;;;;;;;;;;;;5.97;84.82;99634.00;5012388;28;19920;-35
2021/12/08 11:35:02;;;;;;;;;;;;;;;5.95;84.54;99638.75;5012176;28;20316;-35
2021/12/08 11:37:32;;;;;;;;;;;;;;;5.97;84.29;99644.72;5012050;28;19978;-35
2021/12/08 11:40:01;;;;;;;;;;;;;;;5.99;83.87;99642.63;5067254;28;20318;-35
2021/12/08 11:42:29;;;;;;;;;;;;;;;6.00;84.52;99636.19;5094246;28;19919;-35
2021/12/08 11:44:56;;;;;;;;;;;;;;;6.04;85.10;99641.94;5094473;28;19912;-35
2021/12/08 11:47:25;;;;;;;;;;;;;;;6.04;83.31;99649.97;5094180;28;19999;-35
2021/12/08 11:49:52;;;;;;;;;;;;;;;6.02;84.65;99666.31;5095020;28;20233;-35
2021/12/08 11:52:20;;;;;;;;;;;;;;;6.01;83.33;99661.19;5094071;28;19955;-35
2021/12/08 11:54:48;;;;;;;;;;;;;;;5.94;82.57;99667.44;5094529;28;20399;-35
2021/12/08 11:57:13;;;;;;;;;;;;;;;5.91;83.55;99667.09;5094333;28;20418;-35
2021/12/08 11:59:59;;;;;;;;;;;;;;;5.94;84.40;99667.44;5094411;28;19998;-36
2021/12/08 12:02:26;;;;;;;;;;;;;;;5.98;83.81;99672.38;5093799;28;20259;-35
2021/12/08 12:04:52;;;;;;;;;;;;;;;6.03;83.82;99670.63;5094113;28;19947;-35
2021/12/08 12:07:17;;;;;;;;;;;;;;;6.08;84.82;99673.44;5093853;28;20061;-35
2021/12/08 12:09:43;;;;;;;;;;;;;;;6.09;83.27;99685.00;5094302;28;19919;-35
2021/12/08 12:12:08;;;;;;;;;;;;;;;6.08;82.54;99686.88;5093718;28;20264;-36
2021/12/08 12:14:34;;;;;;;;;;;;;;;6.03;82.70;99694.78;5093731;28;20252;-35
2021/12/08 12:17:00;;;;;;;;;;;;;;;6.01;82.32;99693.41;5094179;28;19912;-35
2021/12/08 12:19:27;;;;;;;;;;;;;;;5.99;82.93;99690.91;5093975;28;19919;-35
2021/12/08 12:21:56;;;;;;;;;;;;;;;6.00;82.76;99705.97;5092722;28;20018;-35
2021/12/08 12:24:27;;;;;;;;;;;;;;;6.01;82.75;99704.94;5093666;28;19965;-35
2021/12/08 12:27:07;;;;;;;;;;;;;;;6.02;83.09;99722.69;5093544;28;20324;-35
2021/12/08 12:29:44;;;;;;;;;;;;;;;6.02;83.08;99722.69;5094442;28;19912;-36
2021/12/08 12:32:21;;;;;;;;;;;;;;;6.02;82.68;99719.19;5093317;28;19912;-36
2021/12/08 12:34:51;;;;;;;;;;;;;;;6.03;83.35;99721.63;5093952;28;19919;-36
2021/12/08 12:37:16;;;;;;;;;;;;;;;6.04;82.56;99725.13;5076177;28;19912;-36
2021/12/08 12:39:49;;;;;;;;;;;;;;;6.07;83.33;99730.84;5093842;28;19912;-36
2021/12/08 12:42:16;;;;;;;;;;;;;;;6.08;83.91;99724.44;5093446;28;20276;-36
2021/12/08 12:44:45;;;;;;;;;;;;;;;6.08;84.34;99727.13;5093106;28;19918;-36
2021/12/08 12:47:21;;;;;;;;;;;;;;;6.09;83.57;99718.00;5093514;28;20018;-36
2021/12/08 12:49:48;;;;;;;;;;;;;;;6.09;82.90;99726.06;5093791;28;19935;-36
2021/12/08 12:52:15;;;;;;;;;;;;;;;6.09;83.05;99722.56;5093983;28;20292;-36
2021/12/08 12:54:42;;;;;;;;;;;;;;;6.10;83.26;99725.03;5093502;28;19916;-36
2021/12/08 12:57:07;;;;;;;;;;;;;;;6.09;82.86;99717.19;5093414;28;20344;-36
2021/12/08 12:59:39;;;;;;;;;;;;;;;6.13;83.12;99715.69;5093564;28;19951;-36
2021/12/08 13:02:05;;;;;;;;;;;;;;;6.13;83.03;99721.06;5093528;28;19934;-36
2021/12/08 13:04:34;;;;;;;;;;;;;;;6.07;83.09;99712.06;5093206;28;19912;-36
2021/12/08 13:07:04;;;;;;;;;;;;;;;6.17;83.45;99720.38;5093671;28;19919;-36
2021/12/08 13:09:33;;;;;;;;;;;;;;;6.21;83.95;99717.25;5093239;28;19958;-36
2021/12/08 13:12:08;;;;;;;;;;;;;;;6.26;83.39;99718.19;5093083;28;19919;-36
2021/12/08 13:14:33;;;;;;;;;;;;;;;6.30;82.59;99727.44;5093066;28;19969;-36
2021/12/08 13:17:07;;;;;;;;;;;;;;;6.34;82.05;99736.63;5093288;28;19912;-36
2021/12/08 13:19:37;;;;;;;;;;;;;;;6.32;82.07;99728.00;5093106;28;20007;-36
2021/12/08 13:22:02;;;;;;;;;;;;;;;6.29;81.36;99739.19;5093218;28;19915;-36
2021/12/08 13:24:34;;;;;;;;;;;;;;;6.30;82.59;99735.47;5075241;28;19989;-36
2021/12/08 13:27:01;;;;;;;;;;;;;;;6.26;82.42;99728.13;5093373;28;19912;-36
2021/12/08 13:29:26;;;;;;;;;;;;;;;6.24;82.48;99741.75;5092967;28;19919;-35
2021/12/08 13:32:11;;;;;;;;;;;;;;;6.23;81.98;99748.16;5092882;28;19912;-35
2021/12/08 13:34:38;;;;;;;;;;;;;;;6.19;82.23;99749.66;5096006;28;19916;-35
2021/12/08 13:37:13;;;;;;;;;;;;;;;6.17;82.13;99755.28;5096497;28;19912;-36
2021/12/08 13:39:41;;;;;;;;;;;;;;;6.17;82.79;99757.97;5096644;28;19916;-35
2021/12/08 13:42:11;;;;;;;;;;;;;;;6.21;83.53;99766.38;5097029;28;19912;-35
2021/12/08 13:44:38;;;;;;;;;;;;;;;6.16;82.63;99753.66;5097241;28;19912;-35
2021/12/08 13:47:05;;;;;;;;;;;;;;;6.14;83.89;99753.03;5096435;28;19912;-35